createdAt,value
2017-08-20T00:00:16.577Z,99.90
2017-08-20T00:02:45.231Z,99.90
2017-08-20T00:05:14.253Z,99.90
2017-08-20T00:07:42.810Z,99.90
2017-08-20T00:10:11.394Z,99.90
2017-08-20T00:12:40.012Z,99.90
2017-08-20T00:15:09.499Z,99.90
2017-08-20T00:17:38.098Z,99.90
2017-08-20T00:20:06.850Z,99.90
2017-08-20T00:22:35.410Z,99.90
2017-08-20T00:25:04.030Z,99.90
2017-08-20T00:27:32.921Z,99.90
2017-08-20T00:30:05.198Z,99.90
2017-08-20T00:32:34.395Z,99.90
2017-08-20T00:35:04.327Z,99.90
2017-08-20T00:37:35.276Z,99.90
2017-08-20T00:40:04.603Z,99.90
2017-08-20T00:42:35.830Z,99.90
2017-08-20T00:45:05.850Z,99.90
2017-08-20T00:47:36.078Z,99.90
2017-08-20T00:50:05.578Z,99.90
2017-08-20T00:52:35.934Z,99.90
2017-08-20T00:55:06.170Z,99.90
2017-08-20T00:57:37.421Z,99.90
2017-08-20T01:00:07.515Z,99.90
2017-08-20T01:02:38.697Z,99.90
2017-08-20T01:05:07.910Z,99.90
2017-08-20T01:07:37.374Z,99.90
2017-08-20T01:10:07.314Z,99.90
2017-08-20T01:12:37.522Z,99.90
2017-08-20T01:15:07.044Z,99.90
2017-08-20T01:17:35.371Z,99.90
2017-08-20T01:20:07.115Z,99.90
2017-08-20T01:22:37.090Z,99.90
2017-08-20T01:25:07.958Z,99.90
2017-08-20T01:27:36.997Z,99.90
2017-08-20T01:30:07.283Z,99.90
2017-08-20T01:32:37.119Z,99.90
2017-08-20T01:35:06.992Z,99.90
2017-08-20T01:37:35.472Z,99.90
2017-08-20T01:40:06.028Z,99.90
2017-08-20T01:42:34.903Z,99.90
2017-08-20T01:45:04.490Z,99.90
2017-08-20T01:47:33.535Z,99.90
2017-08-20T01:50:01.873Z,99.90
2017-08-20T01:52:31.081Z,99.90
2017-08-20T01:55:00.847Z,99.90
2017-08-20T01:57:30.102Z,99.90
2017-08-20T02:00:00.538Z,99.90
2017-08-20T02:02:30.118Z,99.90
2017-08-20T02:04:59.138Z,99.90
2017-08-20T02:07:29.523Z,99.90
2017-08-20T02:09:59.477Z,99.90
2017-08-20T02:12:28.854Z,99.90
2017-08-20T02:14:57.395Z,99.90
2017-08-20T02:17:28.287Z,99.90
2017-08-20T02:19:58.426Z,99.90
2017-08-20T02:22:27.746Z,99.90
2017-08-20T02:24:57.578Z,99.90
2017-08-20T02:27:27.611Z,99.90
2017-08-20T02:29:58.901Z,99.90
2017-08-20T02:32:28.678Z,99.90
2017-08-20T02:34:57.839Z,99.90
2017-08-20T02:37:26.543Z,99.90
2017-08-20T02:39:55.842Z,99.90
2017-08-20T02:42:24.999Z,99.90
2017-08-20T02:44:54.229Z,99.90
2017-08-20T02:47:24.546Z,99.90
2017-08-20T02:49:53.482Z,99.90
2017-08-20T02:52:21.862Z,99.90
2017-08-20T02:54:51.623Z,99.90
2017-08-20T02:57:21.741Z,99.90
2017-08-20T02:59:51.423Z,99.90
2017-08-20T03:02:19.766Z,99.90
2017-08-20T03:04:49.428Z,99.90
2017-08-20T03:07:19.142Z,99.90
2017-08-20T03:09:48.454Z,99.90
2017-08-20T03:12:17.723Z,99.90
2017-08-20T03:14:46.510Z,99.90
2017-08-20T03:17:16.490Z,99.90
2017-08-20T03:19:45.699Z,99.90
2017-08-20T03:22:17.111Z,99.90
2017-08-20T03:24:46.142Z,99.90
2017-08-20T03:27:16.056Z,99.90
2017-08-20T03:29:46.010Z,99.90
2017-08-20T03:32:14.662Z,99.90
2017-08-20T03:34:43.939Z,99.90
2017-08-20T03:37:14.683Z,99.90
2017-08-20T03:39:43.430Z,99.90
2017-08-20T03:42:13.262Z,99.90
2017-08-20T03:44:43.546Z,99.90
2017-08-20T03:47:13.908Z,99.90
2017-08-20T03:49:43.081Z,99.90
2017-08-20T03:52:11.518Z,99.90
2017-08-20T03:54:40.081Z,99.90
2017-08-20T03:57:09.391Z,99.90
2017-08-20T03:59:37.990Z,99.90
2017-08-20T04:02:07.082Z,99.90
2017-08-20T04:04:38.768Z,99.90
2017-08-20T04:07:09.026Z,99.90
2017-08-20T04:09:38.819Z,99.90
2017-08-20T04:12:08.306Z,99.90
2017-08-20T04:14:37.602Z,99.90
2017-08-20T04:17:06.291Z,99.90
2017-08-20T04:19:34.870Z,99.90
2017-08-20T04:22:03.595Z,99.90
2017-08-20T04:24:32.347Z,99.90
2017-08-20T04:27:00.938Z,99.90
2017-08-20T04:29:29.491Z,99.90
2017-08-20T04:31:58.279Z,99.90
2017-08-20T04:34:27.031Z,98.20
2017-08-20T04:36:55.427Z,96.50
2017-08-20T04:39:25.011Z,94.90
2017-08-20T04:41:54.390Z,93.00
2017-08-20T04:44:23.107Z,93.00
2017-08-20T04:46:51.811Z,92.70
2017-08-20T04:49:20.403Z,91.60
2017-08-20T04:51:48.434Z,91.80
2017-08-20T04:54:17.910Z,89.70
2017-08-20T04:56:45.935Z,89.60
2017-08-20T04:59:14.454Z,84.80
2017-08-20T05:01:43.991Z,82.40
2017-08-20T05:04:12.545Z,80.30
2017-08-20T05:06:41.247Z,79.50
2017-08-20T05:09:10.234Z,78.40
2017-08-20T05:11:38.698Z,76.90
2017-08-20T05:14:07.297Z,76.30
2017-08-20T05:16:36.422Z,76.20
2017-08-20T05:19:05.001Z,78.80
2017-08-20T05:21:33.726Z,77.50
2017-08-20T05:24:02.251Z,76.90
2017-08-20T05:26:30.839Z,76.60
2017-08-20T05:28:59.446Z,73.70
2017-08-20T05:31:28.515Z,70.90
2017-08-20T05:33:57.091Z,69.20
2017-08-20T05:36:25.467Z,66.30
2017-08-20T05:38:53.792Z,64.00
2017-08-20T05:41:22.678Z,63.00
2017-08-20T05:43:51.326Z,63.30
2017-08-20T05:46:20.091Z,64.90
2017-08-20T05:48:48.118Z,65.50
2017-08-20T05:51:16.561Z,65.10
2017-08-20T05:53:44.756Z,64.90
2017-08-20T05:56:13.430Z,65.20
2017-08-20T05:58:41.455Z,66.10
2017-08-20T06:01:11.099Z,65.50
2017-08-20T06:03:39.710Z,65.50
2017-08-20T06:06:08.318Z,65.00
2017-08-20T06:08:37.189Z,63.40
2017-08-20T06:11:05.964Z,63.80
2017-08-20T06:13:34.003Z,61.10
2017-08-20T06:16:02.835Z,59.40
2017-08-20T06:18:31.587Z,57.80
2017-08-20T06:20:59.991Z,57.70
2017-08-20T06:23:28.150Z,54.80
2017-08-20T06:25:56.550Z,54.20
2017-08-20T06:28:25.051Z,53.40
2017-08-20T06:30:53.862Z,52.20
2017-08-20T06:33:22.590Z,51.70
2017-08-20T06:35:50.982Z,52.00
2017-08-20T06:38:19.828Z,52.80
2017-08-20T06:53:54.618Z,54.10
2017-08-20T06:56:23.231Z,54.00
2017-08-20T06:58:51.880Z,54.30
2017-08-20T07:01:20.522Z,54.30
2017-08-20T07:03:50.046Z,54.60
2017-08-20T07:06:18.546Z,54.50
2017-08-20T07:08:46.768Z,54.40
2017-08-20T07:11:15.166Z,54.00
2017-08-20T07:13:44.618Z,53.30
2017-08-20T07:16:13.183Z,53.30
2017-08-20T07:18:41.802Z,52.80
2017-08-20T07:21:10.414Z,51.70
2017-08-20T07:23:39.274Z,50.80
2017-08-20T07:26:08.128Z,49.30
2017-08-20T07:28:36.532Z,49.70
2017-08-20T07:31:05.382Z,48.90
2017-08-20T07:33:34.627Z,47.20
2017-08-20T07:36:03.053Z,47.20
2017-08-20T07:38:31.841Z,46.60
2017-08-20T07:41:00.588Z,46.30
2017-08-20T07:43:29.278Z,48.00
2017-08-20T07:45:57.942Z,48.30
2017-08-20T07:48:27.310Z,48.60
2017-08-20T07:50:55.868Z,48.60
2017-08-20T07:53:24.680Z,47.90
2017-08-20T07:55:53.046Z,48.20
2017-08-20T07:58:21.119Z,49.00
2017-08-20T08:00:50.058Z,47.60
2017-08-20T08:03:18.510Z,47.40
2017-08-20T08:05:47.065Z,48.30
2017-08-20T08:08:15.892Z,48.10
2017-08-20T08:10:45.095Z,49.40
2017-08-20T08:13:14.385Z,49.20
2017-08-20T08:15:43.070Z,49.20
2017-08-20T08:18:11.687Z,49.00
2017-08-20T08:20:40.086Z,48.30
2017-08-20T08:23:08.902Z,48.90
2017-08-20T08:25:37.510Z,49.00
2017-08-20T08:28:06.263Z,48.90
2017-08-20T08:30:34.922Z,48.90
2017-08-20T08:33:03.443Z,48.90
2017-08-20T08:35:32.846Z,46.20
2017-08-20T08:38:01.646Z,46.10
2017-08-20T08:40:30.283Z,46.60
2017-08-20T08:42:58.743Z,46.50
2017-08-20T08:45:28.334Z,45.30
2017-08-20T08:47:56.780Z,45.30
2017-08-20T08:50:25.287Z,45.40
2017-08-20T08:52:54.168Z,45.70
2017-08-20T08:55:23.018Z,45.30
2017-08-20T08:57:51.338Z,45.10
2017-08-20T09:00:20.159Z,44.90
2017-08-20T09:02:48.746Z,43.20
2017-08-20T09:05:17.183Z,42.80
2017-08-20T09:07:45.886Z,42.90
2017-08-20T09:10:14.576Z,42.90
2017-08-20T09:12:42.602Z,41.70
2017-08-20T09:15:10.723Z,42.10
2017-08-20T09:17:39.188Z,42.40
2017-08-20T09:20:07.786Z,42.30
2017-08-20T09:22:36.723Z,42.30
2017-08-20T09:25:05.978Z,42.20
2017-08-20T09:27:34.670Z,42.20
2017-08-20T09:30:03.522Z,42.40
2017-08-20T09:32:31.920Z,42.30
2017-08-20T09:35:00.527Z,43.00
2017-08-20T09:37:29.338Z,47.80
2017-08-20T09:39:58.058Z,52.80
2017-08-20T09:42:26.094Z,53.40
2017-08-20T09:44:54.966Z,54.40
2017-08-20T09:47:23.711Z,55.10
2017-08-20T09:49:52.452Z,55.60
2017-08-20T09:52:21.186Z,55.30
2017-08-20T09:54:49.710Z,55.40
2017-08-20T09:57:18.294Z,55.00
2017-08-20T09:59:47.802Z,56.40
2017-08-20T10:02:16.415Z,56.90
2017-08-20T10:04:45.139Z,57.10
2017-08-20T10:07:13.639Z,58.00
2017-08-20T10:09:42.282Z,57.80
2017-08-20T10:12:11.582Z,58.40
2017-08-20T10:14:40.338Z,58.10
2017-08-20T10:17:09.086Z,58.30
2017-08-20T10:19:37.495Z,58.70
2017-08-20T10:22:06.091Z,59.90
2017-08-20T10:24:34.125Z,62.50
2017-08-20T10:27:02.550Z,64.30
2017-08-20T10:29:31.234Z,66.30
2017-08-20T10:32:00.083Z,73.50
2017-08-20T10:34:28.487Z,76.60
2017-08-20T10:36:57.296Z,81.50
2017-08-20T10:39:25.925Z,78.80
2017-08-20T10:41:55.190Z,78.80
2017-08-20T10:44:23.995Z,78.70
2017-08-20T10:46:52.644Z,80.30
2017-08-20T10:49:21.175Z,81.70
2017-08-20T10:51:50.442Z,80.10
2017-08-20T10:54:19.035Z,79.10
2017-08-20T10:56:47.715Z,75.90
2017-08-20T10:59:16.711Z,76.50
2017-08-20T11:01:44.822Z,78.60
2017-08-20T11:04:14.559Z,81.80
2017-08-20T11:06:43.550Z,81.80
2017-08-20T11:09:11.946Z,80.50
2017-08-20T11:11:40.554Z,78.90
2017-08-20T11:14:09.342Z,79.00
2017-08-20T11:16:37.374Z,81.00
2017-08-20T11:19:05.898Z,80.50
2017-08-20T11:21:34.714Z,83.20
2017-08-20T11:24:03.439Z,82.30
2017-08-20T11:26:31.941Z,83.60
2017-08-20T11:29:00.646Z,86.30
2017-08-20T11:31:29.330Z,85.90
2017-08-20T11:33:58.010Z,87.60
2017-08-20T11:36:26.671Z,87.40
2017-08-20T11:38:55.198Z,89.10
2017-08-20T11:41:23.838Z,90.20
2017-08-20T11:43:52.327Z,91.10
2017-08-20T11:46:20.842Z,91.50
2017-08-20T11:48:49.490Z,91.10
2017-08-20T11:51:17.990Z,92.00
2017-08-20T11:53:46.707Z,92.60
2017-08-20T11:56:15.385Z,91.30
2017-08-20T11:58:43.942Z,90.30
2017-08-20T12:01:12.455Z,90.60
2017-08-20T12:03:41.144Z,92.00
2017-08-20T12:06:10.450Z,92.60
2017-08-20T12:08:39.130Z,92.30
2017-08-20T12:11:07.808Z,91.80
2017-08-20T12:13:36.442Z,90.80
2017-08-20T12:16:05.595Z,91.60
2017-08-20T12:18:34.191Z,91.30
2017-08-20T12:21:03.006Z,89.30
2017-08-20T12:23:31.090Z,87.20
2017-08-20T12:26:00.450Z,91.20
2017-08-20T12:28:29.985Z,93.20
2017-08-20T12:30:58.026Z,93.10
2017-08-20T12:33:26.653Z,92.80
2017-08-20T12:35:54.958Z,93.60
2017-08-20T12:38:23.486Z,93.40
2017-08-20T12:40:52.094Z,93.30
2017-08-20T12:43:21.019Z,92.90
2017-08-20T12:45:49.417Z,92.10
2017-08-20T12:48:18.026Z,92.90
2017-08-20T12:50:46.842Z,93.50
2017-08-20T12:53:15.497Z,94.40
2017-08-20T12:55:44.014Z,94.60
2017-08-20T12:58:12.123Z,94.80
2017-08-20T13:00:40.526Z,94.60
2017-08-20T13:03:09.027Z,94.00
2017-08-20T13:05:37.813Z,93.70
2017-08-20T13:08:06.766Z,93.30
2017-08-20T13:10:35.163Z,93.00
2017-08-20T13:13:03.832Z,92.90
2017-08-20T13:15:32.455Z,92.70
2017-08-20T13:18:01.237Z,91.60
2017-08-20T13:20:29.346Z,90.00
2017-08-20T13:22:57.381Z,88.60
2017-08-20T13:25:25.983Z,86.80
2017-08-20T13:27:54.770Z,86.10
2017-08-20T13:30:23.518Z,86.50
2017-08-20T13:32:51.926Z,85.70
2017-08-20T13:35:20.730Z,85.10
2017-08-20T13:37:49.649Z,85.20
2017-08-20T13:40:18.307Z,84.80
2017-08-20T13:42:46.846Z,84.30
2017-08-20T13:45:15.383Z,81.70
2017-08-20T13:47:44.163Z,81.30
2017-08-20T13:50:13.119Z,82.40
2017-08-20T13:52:41.524Z,82.10
2017-08-20T13:55:10.126Z,83.60
2017-08-20T13:57:38.942Z,84.10
2017-08-20T14:00:06.986Z,84.80
2017-08-20T14:02:35.513Z,85.60
2017-08-20T14:05:04.906Z,85.40
2017-08-20T14:07:33.483Z,85.40
2017-08-20T14:10:02.450Z,85.40
2017-08-20T14:12:31.407Z,85.50
2017-08-20T14:14:59.437Z,86.30
2017-08-20T14:17:28.102Z,86.90
2017-08-20T14:19:57.058Z,87.50
2017-08-20T14:22:25.465Z,87.90
2017-08-20T14:24:54.063Z,88.60
2017-08-20T14:27:22.855Z,88.80
2017-08-20T14:29:51.635Z,89.20
2017-08-20T14:32:20.110Z,89.90
2017-08-20T14:34:48.231Z,90.10
2017-08-20T14:37:16.710Z,90.40
2017-08-20T14:39:45.290Z,90.60
2017-08-20T14:42:14.258Z,90.60
2017-08-20T14:44:42.278Z,90.80
2017-08-20T14:47:11.514Z,91.30
2017-08-20T14:49:40.323Z,91.30
2017-08-20T14:52:09.006Z,91.10
2017-08-20T14:54:37.477Z,90.90
2017-08-20T14:57:06.342Z,91.10
2017-08-20T14:59:34.795Z,91.30
2017-08-20T15:02:02.818Z,91.20
2017-08-20T15:04:31.046Z,91.10
2017-08-20T15:06:59.790Z,91.20
2017-08-20T15:09:28.222Z,91.10
2017-08-20T15:11:58.094Z,91.10
2017-08-20T15:14:26.875Z,91.00
2017-08-20T15:16:55.342Z,90.80
2017-08-20T15:19:24.056Z,90.80
2017-08-20T15:21:52.742Z,90.80
2017-08-20T15:24:21.419Z,90.10
2017-08-20T15:26:50.100Z,90.60
2017-08-20T15:29:18.702Z,90.30
2017-08-20T15:31:47.313Z,88.50
2017-08-20T15:34:16.243Z,87.50
2017-08-20T15:36:44.644Z,86.10
2017-08-20T15:39:13.250Z,84.70
2017-08-20T15:41:42.140Z,84.60
2017-08-20T15:44:10.816Z,82.30
2017-08-20T15:46:39.610Z,80.30
2017-08-20T15:49:09.441Z,78.40
2017-08-20T15:51:38.218Z,78.30
2017-08-20T15:54:06.998Z,77.10
2017-08-20T15:56:35.576Z,77.00
2017-08-20T15:59:04.178Z,76.80
2017-08-20T16:01:32.790Z,76.10
2017-08-20T16:04:01.762Z,74.90
2017-08-20T16:06:30.814Z,74.10
2017-08-20T16:08:59.142Z,73.10
2017-08-20T16:11:27.298Z,72.00
2017-08-20T16:13:55.989Z,72.00
2017-08-20T16:16:24.506Z,70.90
2017-08-20T16:18:53.167Z,70.90
2017-08-20T16:21:21.849Z,70.60
2017-08-20T16:23:50.633Z,69.70
2017-08-20T16:26:19.230Z,69.60
2017-08-20T16:28:47.268Z,68.70
2017-08-20T16:31:15.775Z,68.10
2017-08-20T16:33:44.775Z,67.40
2017-08-20T16:36:13.366Z,66.30
2017-08-20T16:38:42.011Z,63.90
2017-08-20T16:41:10.599Z,61.70
2017-08-20T16:43:38.631Z,59.70
2017-08-20T16:46:07.381Z,57.90
2017-08-20T16:48:35.936Z,55.10
2017-08-20T16:51:04.386Z,53.40
2017-08-20T16:53:33.007Z,52.60
2017-08-20T16:56:02.654Z,51.10
2017-08-20T16:58:31.402Z,51.10
2017-08-20T17:00:59.814Z,50.80
2017-08-20T17:03:28.655Z,49.20
2017-08-20T17:05:57.895Z,48.60
2017-08-20T17:08:26.018Z,48.60
2017-08-20T17:10:54.842Z,48.60
2017-08-20T17:13:23.247Z,47.60
2017-08-20T17:15:51.742Z,47.90
2017-08-20T17:18:20.634Z,50.00
2017-08-20T17:20:48.658Z,52.30
2017-08-20T17:23:17.837Z,55.50
2017-08-20T17:25:45.993Z,55.40
2017-08-20T17:28:14.443Z,55.90
2017-08-20T17:30:43.052Z,55.80
2017-08-20T17:33:11.757Z,55.50
2017-08-20T17:35:40.195Z,54.90
2017-08-20T17:38:08.707Z,53.40
2017-08-20T17:40:37.486Z,52.90
2017-08-20T17:43:06.241Z,53.60
2017-08-20T17:45:34.793Z,53.00
2017-08-20T17:48:03.481Z,52.00
2017-08-20T17:50:32.058Z,52.80
2017-08-20T17:53:00.692Z,53.00
2017-08-20T17:55:28.799Z,53.70
2017-08-20T17:57:57.478Z,53.90
2017-08-20T18:00:26.230Z,53.40
2017-08-20T18:02:54.714Z,53.30
2017-08-20T18:05:23.254Z,53.40
2017-08-20T18:07:51.910Z,53.30
2017-08-20T18:10:20.610Z,52.90
2017-08-20T18:12:49.399Z,52.30
2017-08-20T18:15:17.879Z,51.90
2017-08-20T18:17:46.506Z,51.20
2017-08-20T18:20:15.934Z,51.30
2017-08-20T18:22:43.954Z,50.60
2017-08-20T18:25:12.133Z,50.70
2017-08-20T18:27:41.207Z,50.40
2017-08-20T18:30:09.270Z,50.10
2017-08-20T18:32:37.374Z,49.60
2017-08-20T18:35:05.462Z,49.50
2017-08-20T18:37:33.948Z,49.30
2017-08-20T18:40:02.644Z,49.10
2017-08-20T18:42:30.686Z,49.10
2017-08-20T18:44:59.295Z,49.50
2017-08-20T18:47:28.055Z,49.80
2017-08-20T18:49:56.739Z,50.00
2017-08-20T18:52:25.107Z,50.70
2017-08-20T18:54:53.559Z,51.90
2017-08-20T18:57:22.147Z,53.30
2017-08-20T18:59:50.603Z,53.80
2017-08-20T19:02:20.018Z,55.70
2017-08-20T19:04:48.046Z,55.20
2017-08-20T19:07:16.792Z,55.50
2017-08-20T19:09:45.323Z,56.10
2017-08-20T19:12:13.803Z,56.70
2017-08-20T19:14:42.486Z,57.10
2017-08-20T19:17:11.338Z,58.00
2017-08-20T19:19:39.751Z,59.80
2017-08-20T19:22:08.126Z,63.60
2017-08-20T19:24:37.579Z,71.60
2017-08-20T19:27:05.627Z,71.60
2017-08-20T19:29:34.128Z,76.90
2017-08-20T19:32:02.782Z,81.80
2017-08-20T19:34:31.366Z,84.30
2017-08-20T19:36:59.943Z,86.90
2017-08-20T19:39:28.307Z,88.70
2017-08-20T19:41:56.914Z,90.00
2017-08-20T19:44:25.669Z,90.50
2017-08-20T19:46:54.499Z,90.40
2017-08-20T19:49:23.014Z,90.70
2017-08-20T19:51:51.594Z,91.20
2017-08-20T19:54:21.036Z,93.80
2017-08-20T19:56:49.691Z,93.50
2017-08-20T19:59:18.343Z,94.90
2017-08-20T20:01:47.194Z,95.70
2017-08-20T20:04:15.887Z,96.20
2017-08-20T20:06:45.345Z,94.40
2017-08-20T20:09:13.980Z,94.40
2017-08-20T20:11:42.503Z,92.00
2017-08-20T20:14:11.110Z,90.20
2017-08-20T20:16:39.832Z,86.40
2017-08-20T20:19:08.235Z,83.50
2017-08-20T20:21:36.839Z,79.50
2017-08-20T20:24:05.555Z,74.90
2017-08-20T20:26:33.934Z,73.60
2017-08-20T20:29:02.391Z,69.10
2017-08-20T20:31:31.299Z,67.70
2017-08-20T20:33:59.342Z,65.30
2017-08-20T20:36:27.369Z,62.30
2017-08-20T20:38:56.831Z,61.20
2017-08-20T20:41:25.519Z,61.00
2017-08-20T20:43:54.192Z,61.20
2017-08-20T20:46:22.751Z,60.30
2017-08-20T20:48:51.259Z,59.00
2017-08-20T20:51:20.606Z,58.00
2017-08-20T20:53:48.727Z,58.00
2017-08-20T20:56:17.310Z,57.70
2017-08-20T20:58:45.334Z,57.60
2017-08-20T21:01:13.889Z,57.30
2017-08-20T21:03:42.478Z,57.30
2017-08-20T21:06:11.166Z,57.40
2017-08-20T21:08:40.154Z,57.60
2017-08-20T21:11:08.911Z,57.50
2017-08-20T21:13:37.401Z,57.30
2017-08-20T21:16:06.114Z,57.10
2017-08-20T21:18:34.798Z,56.80
2017-08-20T21:21:03.651Z,56.60
2017-08-20T21:23:32.091Z,56.60
2017-08-20T21:26:00.722Z,57.00
2017-08-20T21:28:29.446Z,57.30
2017-08-20T21:30:58.342Z,57.60
2017-08-20T21:33:27.118Z,57.80
2017-08-20T21:35:55.547Z,57.60
2017-08-20T21:38:24.230Z,57.00
2017-08-20T21:40:52.946Z,56.60
2017-08-20T21:43:21.346Z,56.30
2017-08-20T21:45:50.055Z,55.80
2017-08-20T21:48:18.775Z,55.60
2017-08-20T21:50:46.802Z,55.20
2017-08-20T21:53:15.607Z,55.30
2017-08-20T21:55:44.217Z,55.00
2017-08-20T21:58:12.940Z,55.10
2017-08-20T22:00:41.531Z,55.20
2017-08-20T22:03:09.991Z,55.10
2017-08-20T22:05:39.246Z,55.40
2017-08-20T22:08:07.964Z,56.00
2017-08-20T22:10:36.579Z,55.60
2017-08-20T22:13:05.035Z,55.80
2017-08-20T22:15:33.615Z,56.60
2017-08-20T22:18:02.260Z,56.20
2017-08-20T22:20:30.682Z,56.50
2017-08-20T22:22:59.683Z,56.90
2017-08-20T22:25:28.258Z,57.20
2017-08-20T22:27:56.907Z,57.60
2017-08-20T22:30:25.575Z,57.90
2017-08-20T22:32:54.087Z,58.50
2017-08-20T22:35:22.703Z,58.70
2017-08-20T22:37:51.526Z,58.80
2017-08-20T22:40:20.042Z,59.40
2017-08-20T22:42:48.562Z,59.70
2017-08-20T22:45:17.526Z,59.80
2017-08-20T22:47:46.238Z,60.40
2017-08-20T22:50:14.681Z,60.80
2017-08-20T22:52:43.382Z,60.80
2017-08-20T22:55:11.995Z,60.50
2017-08-20T22:57:40.719Z,60.50
2017-08-20T23:00:09.194Z,60.30
2017-08-20T23:02:37.726Z,60.50
2017-08-20T23:05:06.507Z,61.00
2017-08-20T23:07:35.227Z,61.60
2017-08-20T23:10:06.298Z,62.20
2017-08-20T23:12:35.763Z,67.40
2017-08-20T23:15:04.494Z,67.20
2017-08-20T23:17:32.898Z,68.50
2017-08-20T23:20:01.603Z,70.40
2017-08-20T23:22:29.654Z,72.40
2017-08-20T23:24:58.159Z,74.40
2017-08-20T23:27:26.979Z,73.90
2017-08-20T23:29:55.698Z,70.70
2017-08-20T23:32:24.105Z,62.70
2017-08-20T23:34:52.838Z,62.70
2017-08-20T23:37:21.422Z,62.20
2017-08-20T23:39:50.038Z,61.20
2017-08-20T23:42:18.628Z,60.50
2017-08-20T23:44:47.146Z,60.50
2017-08-20T23:47:15.742Z,60.70
2017-08-20T23:49:44.604Z,61.00
2017-08-20T23:52:13.207Z,61.00
2017-08-20T23:54:41.838Z,60.90
2017-08-20T23:57:11.463Z,59.50
2017-08-20T23:59:39.995Z,59.50
